sensor_id;sensor_type;location;lat;lon;timestamp;P1;durP1;ratioP1;P2;durP2;ratioP2
11039;SDS011;5573;49.592;8.662;2023-07-24T00:02:06;145.50;;;137.93;;
11039;SDS011;5573;49.592;8.662;2023-07-24T00:04:34;150.00;;;142.32;;
11039;SDS011;5573;49.592;8.662;2023-07-24T00:07:02;149.15;;;141.55;;
11039;SDS011;5573;49.592;8.662;2023-07-24T00:09:30;152.88;;;145.07;;
11039;SDS011;5573;49.592;8.662;2023-07-24T00:12:00;148.57;;;140.93;;
11039;SDS011;5573;49.592;8.662;2023-07-24T00:14:28;145.27;;;137.85;;
11039;SDS011;5573;49.592;8.662;2023-07-24T00:16:56;143.23;;;135.85;;
11039;SDS011;5573;49.592;8.662;2023-07-24T00:19:24;148.63;;;140.98;;
11039;SDS011;5573;49.592;8.662;2023-07-24T00:21:52;142.52;;;135.20;;
11039;SDS011;5573;49.592;8.662;2023-07-24T00:24:20;151.98;;;144.27;;
11039;SDS011;5573;49.592;8.662;2023-07-24T00:26:48;166.43;;;157.93;;
11039;SDS011;5573;49.592;8.662;2023-07-24T00:29:18;167.02;;;158.52;;
11039;SDS011;5573;49.592;8.662;2023-07-24T00:31:46;179.30;;;170.18;;
11039;SDS011;5573;49.592;8.662;2023-07-24T00:34:14;173.02;;;164.27;;
11039;SDS011;5573;49.592;8.662;2023-07-24T00:36:41;173.88;;;165.00;;
11039;SDS011;5573;49.592;8.662;2023-07-24T00:39:09;175.85;;;166.85;;
11039;SDS011;5573;49.592;8.662;2023-07-24T00:41:37;185.10;;;175.73;;
11039;SDS011;5573;49.592;8.662;2023-07-24T00:44:05;165.02;;;156.50;;
11039;SDS011;5573;49.592;8.662;2023-07-24T00:46:35;171.40;;;162.60;;
11039;SDS011;5573;49.592;8.662;2023-07-24T00:49:04;171.18;;;162.20;;
11039;SDS011;5573;49.592;8.662;2023-07-24T00:51:32;179.35;;;170.20;;
11039;SDS011;5573;49.592;8.662;2023-07-24T00:54:02;173.25;;;164.50;;
11039;SDS011;5573;49.592;8.662;2023-07-24T00:56:30;173.32;;;164.52;;
11039;SDS011;5573;49.592;8.662;2023-07-24T00:59:00;191.43;;;181.80;;
11039;SDS011;5573;49.592;8.662;2023-07-24T01:01:28;188.68;;;179.02;;
11039;SDS011;5573;49.592;8.662;2023-07-24T01:03:58;188.30;;;178.82;;
11039;SDS011;5573;49.592;8.662;2023-07-24T01:06:26;186.77;;;177.43;;
11039;SDS011;5573;49.592;8.662;2023-07-24T01:08:55;189.68;;;180.02;;
11039;SDS011;5573;49.592;8.662;2023-07-24T01:11:24;175.38;;;166.48;;
11039;SDS011;5573;49.592;8.662;2023-07-24T01:13:56;178.93;;;169.80;;
11039;SDS011;5573;49.592;8.662;2023-07-24T01:16:30;165.35;;;156.98;;
11039;SDS011;5573;49.592;8.662;2023-07-24T01:19:06;161.48;;;153.25;;
11039;SDS011;5573;49.592;8.662;2023-07-24T01:21:44;163.32;;;154.88;;
11039;SDS011;5573;49.592;8.662;2023-07-24T01:24:23;166.93;;;158.25;;
11039;SDS011;5573;49.592;8.662;2023-07-24T01:26:58;154.65;;;146.75;;
11039;SDS011;5573;49.592;8.662;2023-07-24T01:29:26;147.85;;;140.38;;
11039;SDS011;5573;49.592;8.662;2023-07-24T01:31:54;147.73;;;140.20;;
11039;SDS011;5573;49.592;8.662;2023-07-24T01:34:22;151.73;;;144.07;;
11039;SDS011;5573;49.592;8.662;2023-07-24T01:36:50;138.98;;;131.80;;
11039;SDS011;5573;49.592;8.662;2023-07-24T01:39:19;142.88;;;135.57;;
11039;SDS011;5573;49.592;8.662;2023-07-24T01:41:48;148.88;;;141.23;;
11039;SDS011;5573;49.592;8.662;2023-07-24T01:44:19;147.75;;;140.07;;
11039;SDS011;5573;49.592;8.662;2023-07-24T01:46:47;147.73;;;140.05;;
11039;SDS011;5573;49.592;8.662;2023-07-24T01:49:15;134.85;;;127.90;;
11039;SDS011;5573;49.592;8.662;2023-07-24T01:51:43;134.57;;;127.68;;
11039;SDS011;5573;49.592;8.662;2023-07-24T01:54:10;136.02;;;129.00;;
11039;SDS011;5573;49.592;8.662;2023-07-24T01:56:39;135.30;;;128.23;;
11039;SDS011;5573;49.592;8.662;2023-07-24T01:59:06;124.28;;;117.93;;
11039;SDS011;5573;49.592;8.662;2023-07-24T02:01:36;137.75;;;130.55;;
11039;SDS011;5573;49.592;8.662;2023-07-24T02:04:04;126.65;;;120.18;;
11039;SDS011;5573;49.592;8.662;2023-07-24T02:06:31;133.80;;;126.97;;
11039;SDS011;5573;49.592;8.662;2023-07-24T02:08:59;128.43;;;121.90;;
11039;SDS011;5573;49.592;8.662;2023-07-24T02:11:27;131.13;;;124.25;;
11039;SDS011;5573;49.592;8.662;2023-07-24T02:13:56;132.23;;;125.35;;
11039;SDS011;5573;49.592;8.662;2023-07-24T02:16:24;128.25;;;121.68;;
11039;SDS011;5573;49.592;8.662;2023-07-24T02:18:53;128.50;;;121.93;;
11039;SDS011;5573;49.592;8.662;2023-07-24T02:21:21;130.50;;;123.75;;
11039;SDS011;5573;49.592;8.662;2023-07-24T02:23:49;133.98;;;127.05;;
11039;SDS011;5573;49.592;8.662;2023-07-24T02:26:17;137.18;;;130.02;;
11039;SDS011;5573;49.592;8.662;2023-07-24T02:28:45;141.38;;;133.95;;
11039;SDS011;5573;49.592;8.662;2023-07-24T02:31:13;135.25;;;128.15;;
11039;SDS011;5573;49.592;8.662;2023-07-24T02:33:47;135.05;;;128.07;;
11039;SDS011;5573;49.592;8.662;2023-07-24T02:36:16;139.30;;;132.07;;
11039;SDS011;5573;49.592;8.662;2023-07-24T02:38:44;144.00;;;136.52;;
11039;SDS011;5573;49.592;8.662;2023-07-24T02:41:12;138.60;;;131.40;;
11039;SDS011;5573;49.592;8.662;2023-07-24T02:43:39;139.38;;;132.13;;
11039;SDS011;5573;49.592;8.662;2023-07-24T02:46:07;142.90;;;135.30;;
11039;SDS011;5573;49.592;8.662;2023-07-24T02:48:35;141.02;;;133.70;;
11039;SDS011;5573;49.592;8.662;2023-07-24T02:51:03;148.07;;;140.20;;
11039;SDS011;5573;49.592;8.662;2023-07-24T02:53:32;146.65;;;138.75;;
11039;SDS011;5573;49.592;8.662;2023-07-24T02:56:00;159.63;;;151.20;;
11039;SDS011;5573;49.592;8.662;2023-07-24T02:58:28;155.80;;;147.68;;
11039;SDS011;5573;49.592;8.662;2023-07-24T03:01:02;158.25;;;150.05;;
11039;SDS011;5573;49.592;8.662;2023-07-24T03:03:30;163.18;;;154.43;;
11039;SDS011;5573;49.592;8.662;2023-07-24T03:05:58;165.73;;;157.07;;
11039;SDS011;5573;49.592;8.662;2023-07-24T03:08:26;168.45;;;159.75;;
11039;SDS011;5573;49.592;8.662;2023-07-24T03:10:56;164.80;;;156.32;;
11039;SDS011;5573;49.592;8.662;2023-07-24T03:13:25;164.85;;;156.18;;
11039;SDS011;5573;49.592;8.662;2023-07-24T03:15:53;177.75;;;168.52;;
11039;SDS011;5573;49.592;8.662;2023-07-24T03:18:22;171.43;;;162.48;;
11039;SDS011;5573;49.592;8.662;2023-07-24T03:20:51;167.95;;;159.27;;
11039;SDS011;5573;49.592;8.662;2023-07-24T03:23:19;172.50;;;163.48;;
11039;SDS011;5573;49.592;8.662;2023-07-24T03:25:47;186.70;;;176.98;;
11039;SDS011;5573;49.592;8.662;2023-07-24T03:28:17;171.27;;;162.38;;
11039;SDS011;5573;49.592;8.662;2023-07-24T03:30:45;173.35;;;164.40;;
11039;SDS011;5573;49.592;8.662;2023-07-24T03:33:13;169.68;;;160.82;;
11039;SDS011;5573;49.592;8.662;2023-07-24T03:35:40;171.27;;;162.25;;
11039;SDS011;5573;49.592;8.662;2023-07-24T03:38:08;173.93;;;164.73;;
11039;SDS011;5573;49.592;8.662;2023-07-24T03:40:36;174.23;;;165.23;;
11039;SDS011;5573;49.592;8.662;2023-07-24T03:43:04;162.07;;;153.70;;
11039;SDS011;5573;49.592;8.662;2023-07-24T03:45:33;168.32;;;159.55;;
11039;SDS011;5573;49.592;8.662;2023-07-24T03:48:01;167.60;;;158.88;;
11039;SDS011;5573;49.592;8.662;2023-07-24T03:50:29;161.77;;;153.38;;
11039;SDS011;5573;49.592;8.662;2023-07-24T03:52:57;153.27;;;145.30;;
11039;SDS011;5573;49.592;8.662;2023-07-24T03:55:24;152.45;;;144.43;;
11039;SDS011;5573;49.592;8.662;2023-07-24T03:57:53;154.25;;;146.27;;
11039;SDS011;5573;49.592;8.662;2023-07-24T04:00:20;146.40;;;138.73;;
11039;SDS011;5573;49.592;8.662;2023-07-24T04:02:49;139.10;;;131.88;;
11039;SDS011;5573;49.592;8.662;2023-07-24T04:05:17;132.82;;;125.82;;
11039;SDS011;5573;49.592;8.662;2023-07-24T04:07:45;140.35;;;133.10;;
11039;SDS011;5573;49.592;8.662;2023-07-24T04:10:13;131.77;;;124.90;;
11039;SDS011;5573;49.592;8.662;2023-07-24T04:12:41;132.52;;;125.75;;
11039;SDS011;5573;49.592;8.662;2023-07-24T04:15:08;136.90;;;129.82;;
11039;SDS011;5573;49.592;8.662;2023-07-24T04:17:36;140.52;;;133.27;;
11039;SDS011;5573;49.592;8.662;2023-07-24T04:20:07;141.30;;;134.02;;
11039;SDS011;5573;49.592;8.662;2023-07-24T04:22:36;143.40;;;135.98;;
11039;SDS011;5573;49.592;8.662;2023-07-24T04:25:04;137.55;;;130.48;;
11039;SDS011;5573;49.592;8.662;2023-07-24T04:27:32;139.55;;;132.40;;
11039;SDS011;5573;49.592;8.662;2023-07-24T04:30:00;138.55;;;131.32;;
11039;SDS011;5573;49.592;8.662;2023-07-24T04:32:28;147.65;;;139.98;;
11039;SDS011;5573;49.592;8.662;2023-07-24T04:34:56;144.07;;;136.52;;
11039;SDS011;5573;49.592;8.662;2023-07-24T04:37:25;135.18;;;128.13;;
11039;SDS011;5573;49.592;8.662;2023-07-24T04:39:53;145.77;;;138.23;;
11039;SDS011;5573;49.592;8.662;2023-07-24T04:42:21;145.88;;;138.32;;
11039;SDS011;5573;49.592;8.662;2023-07-24T04:44:49;148.77;;;141.05;;
11039;SDS011;5573;49.592;8.662;2023-07-24T04:47:18;142.65;;;135.30;;
11039;SDS011;5573;49.592;8.662;2023-07-24T04:49:45;141.52;;;134.27;;
11039;SDS011;5573;49.592;8.662;2023-07-24T04:52:13;145.00;;;137.57;;
11039;SDS011;5573;49.592;8.662;2023-07-24T04:54:42;144.75;;;137.30;;
11039;SDS011;5573;49.592;8.662;2023-07-24T04:57:10;148.38;;;140.65;;
11039;SDS011;5573;49.592;8.662;2023-07-24T04:59:38;145.45;;;137.90;;
11039;SDS011;5573;49.592;8.662;2023-07-24T05:02:06;150.30;;;142.55;;
11039;SDS011;5573;49.592;8.662;2023-07-24T05:04:34;143.98;;;136.55;;
11039;SDS011;5573;49.592;8.662;2023-07-24T05:07:02;150.10;;;142.35;;
11039;SDS011;5573;49.592;8.662;2023-07-24T05:09:30;147.45;;;139.82;;
11039;SDS011;5573;49.592;8.662;2023-07-24T05:11:59;154.60;;;146.38;;
11039;SDS011;5573;49.592;8.662;2023-07-24T05:14:27;153.73;;;145.75;;
11039;SDS011;5573;49.592;8.662;2023-07-24T05:16:55;147.23;;;139.60;;
11039;SDS011;5573;49.592;8.662;2023-07-24T05:19:23;151.93;;;144.13;;
11039;SDS011;5573;49.592;8.662;2023-07-24T05:21:50;162.43;;;153.95;;
11039;SDS011;5573;49.592;8.662;2023-07-24T05:24:18;156.30;;;148.25;;
11039;SDS011;5573;49.592;8.662;2023-07-24T05:26:46;151.10;;;143.35;;
11039;SDS011;5573;49.592;8.662;2023-07-24T05:29:15;163.70;;;155.27;;
11039;SDS011;5573;49.592;8.662;2023-07-24T05:31:43;157.52;;;149.35;;
11039;SDS011;5573;49.592;8.662;2023-07-24T05:34:11;155.73;;;147.63;;
11039;SDS011;5573;49.592;8.662;2023-07-24T05:36:40;160.00;;;151.68;;
11039;SDS011;5573;49.592;8.662;2023-07-24T05:39:07;160.88;;;152.48;;
11039;SDS011;5573;49.592;8.662;2023-07-24T05:41:35;154.93;;;146.95;;
11039;SDS011;5573;49.592;8.662;2023-07-24T05:44:06;164.70;;;156.20;;
11039;SDS011;5573;49.592;8.662;2023-07-24T05:46:35;166.15;;;157.55;;
11039;SDS011;5573;49.592;8.662;2023-07-24T05:49:03;153.00;;;145.10;;
11039;SDS011;5573;49.592;8.662;2023-07-24T05:51:31;155.50;;;147.50;;
11039;SDS011;5573;49.592;8.662;2023-07-24T05:53:59;154.70;;;146.73;;
11039;SDS011;5573;49.592;8.662;2023-07-24T05:56:27;153.43;;;145.40;;
11039;SDS011;5573;49.592;8.662;2023-07-24T05:58:55;154.50;;;146.48;;
11039;SDS011;5573;49.592;8.662;2023-07-24T06:01:23;156.77;;;148.65;;
11039;SDS011;5573;49.592;8.662;2023-07-24T06:03:52;163.30;;;154.85;;
11039;SDS011;5573;49.592;8.662;2023-07-24T06:06:20;158.30;;;150.02;;
11039;SDS011;5573;49.592;8.662;2023-07-24T06:08:48;168.13;;;159.40;;
11039;SDS011;5573;49.592;8.662;2023-07-24T06:11:17;158.82;;;150.68;;
11039;SDS011;5573;49.592;8.662;2023-07-24T06:13:45;166.25;;;157.60;;
11039;SDS011;5573;49.592;8.662;2023-07-24T06:16:13;156.63;;;148.55;;
11039;SDS011;5573;49.592;8.662;2023-07-24T06:18:40;168.98;;;160.20;;
11039;SDS011;5573;49.592;8.662;2023-07-24T06:21:10;161.50;;;153.18;;
11039;SDS011;5573;49.592;8.662;2023-07-24T06:23:38;168.48;;;159.82;;
11039;SDS011;5573;49.592;8.662;2023-07-24T06:26:06;178.43;;;169.35;;
11039;SDS011;5573;49.592;8.662;2023-07-24T06:28:34;177.45;;;168.40;;
11039;SDS011;5573;49.592;8.662;2023-07-24T06:31:02;187.55;;;178.18;;
11039;SDS011;5573;49.592;8.662;2023-07-24T06:33:30;190.45;;;180.85;;
11039;SDS011;5573;49.592;8.662;2023-07-24T06:35:58;193.07;;;183.25;;
11039;SDS011;5573;49.592;8.662;2023-07-24T06:38:27;196.15;;;186.20;;
11039;SDS011;5573;49.592;8.662;2023-07-24T06:40:55;206.77;;;196.35;;
11039;SDS011;5573;49.592;8.662;2023-07-24T06:43:23;212.30;;;201.60;;
11039;SDS011;5573;49.592;8.662;2023-07-24T06:45:50;223.13;;;211.77;;
11039;SDS011;5573;49.592;8.662;2023-07-24T06:48:19;225.57;;;214.32;;
11039;SDS011;5573;49.592;8.662;2023-07-24T06:50:46;232.68;;;220.95;;
11039;SDS011;5573;49.592;8.662;2023-07-24T06:53:14;239.68;;;227.55;;
11039;SDS011;5573;49.592;8.662;2023-07-24T06:55:43;235.35;;;223.77;;
11039;SDS011;5573;49.592;8.662;2023-07-24T06:58:11;234.80;;;223.02;;
11039;SDS011;5573;49.592;8.662;2023-07-24T07:00:39;223.52;;;212.25;;
11039;SDS011;5573;49.592;8.662;2023-07-24T07:03:07;244.63;;;232.38;;
11039;SDS011;5573;49.592;8.662;2023-07-24T07:05:35;241.77;;;229.48;;
11039;SDS011;5573;49.592;8.662;2023-07-24T07:08:03;236.38;;;224.65;;
11039;SDS011;5573;49.592;8.662;2023-07-24T07:10:31;241.70;;;229.63;;
11039;SDS011;5573;49.592;8.662;2023-07-24T07:13:00;261.40;;;248.20;;
11039;SDS011;5573;49.592;8.662;2023-07-24T07:15:28;255.48;;;242.50;;
11039;SDS011;5573;49.592;8.662;2023-07-24T07:17:56;255.95;;;243.15;;
11039;SDS011;5573;49.592;8.662;2023-07-24T07:20:24;244.55;;;232.02;;
11039;SDS011;5573;49.592;8.662;2023-07-24T07:22:51;243.18;;;230.82;;
11039;SDS011;5573;49.592;8.662;2023-07-24T07:25:19;235.07;;;222.77;;
11039;SDS011;5573;49.592;8.662;2023-07-24T07:27:47;244.60;;;231.85;;
11039;SDS011;5573;49.592;8.662;2023-07-24T07:30:16;242.75;;;230.18;;
11039;SDS011;5573;49.592;8.662;2023-07-24T07:32:44;255.45;;;242.30;;
11039;SDS011;5573;49.592;8.662;2023-07-24T07:35:12;258.10;;;244.43;;
11039;SDS011;5573;49.592;8.662;2023-07-24T07:37:41;257.83;;;244.40;;
11039;SDS011;5573;49.592;8.662;2023-07-24T07:40:08;278.80;;;264.30;;
11039;SDS011;5573;49.592;8.662;2023-07-24T07:42:37;280.30;;;265.77;;
11039;SDS011;5573;49.592;8.662;2023-07-24T07:45:06;261.50;;;247.93;;
11039;SDS011;5573;49.592;8.662;2023-07-24T07:47:36;260.58;;;246.98;;
11039;SDS011;5573;49.592;8.662;2023-07-24T07:50:04;253.48;;;240.50;;
11039;SDS011;5573;49.592;8.662;2023-07-24T07:52:33;256.60;;;243.43;;
11039;SDS011;5573;49.592;8.662;2023-07-24T07:55:00;253.25;;;240.48;;
11039;SDS011;5573;49.592;8.662;2023-07-24T07:57:28;237.50;;;225.40;;
11039;SDS011;5573;49.592;8.662;2023-07-24T07:59:56;244.98;;;232.60;;
11039;SDS011;5573;49.592;8.662;2023-07-24T08:02:24;250.05;;;237.48;;
11039;SDS011;5573;49.592;8.662;2023-07-24T08:04:53;249.98;;;237.23;;
11039;SDS011;5573;49.592;8.662;2023-07-24T08:07:21;241.52;;;229.27;;
11039;SDS011;5573;49.592;8.662;2023-07-24T08:09:49;247.20;;;234.68;;
11039;SDS011;5573;49.592;8.662;2023-07-24T08:12:17;244.23;;;231.88;;
11039;SDS011;5573;49.592;8.662;2023-07-24T08:14:45;241.63;;;229.48;;
11039;SDS011;5573;49.592;8.662;2023-07-24T08:17:13;254.45;;;241.63;;
11039;SDS011;5573;49.592;8.662;2023-07-24T08:19:41;255.73;;;242.90;;
11039;SDS011;5573;49.592;8.662;2023-07-24T08:22:10;241.73;;;229.50;;
11039;SDS011;5573;49.592;8.662;2023-07-24T08:24:38;241.32;;;229.10;;
11039;SDS011;5573;49.592;8.662;2023-07-24T08:27:06;254.20;;;241.48;;
11039;SDS011;5573;49.592;8.662;2023-07-24T08:29:34;246.95;;;234.50;;
11039;SDS011;5573;49.592;8.662;2023-07-24T08:32:03;234.75;;;223.02;;
11039;SDS011;5573;49.592;8.662;2023-07-24T08:34:32;238.82;;;226.77;;
11039;SDS011;5573;49.592;8.662;2023-07-24T08:37:00;233.15;;;221.40;;
11039;SDS011;5573;49.592;8.662;2023-07-24T08:39:30;249.73;;;237.15;;
11039;SDS011;5573;49.592;8.662;2023-07-24T08:41:58;242.35;;;230.30;;
11039;SDS011;5573;49.592;8.662;2023-07-24T08:44:26;253.35;;;240.63;;
11039;SDS011;5573;49.592;8.662;2023-07-24T08:46:58;242.00;;;229.85;;
11039;SDS011;5573;49.592;8.662;2023-07-24T08:49:28;253.93;;;241.10;;
11039;SDS011;5573;49.592;8.662;2023-07-24T08:51:57;261.65;;;248.52;;
11039;SDS011;5573;49.592;8.662;2023-07-24T08:54:27;254.20;;;241.52;;
11039;SDS011;5573;49.592;8.662;2023-07-24T08:56:58;254.65;;;241.63;;
11039;SDS011;5573;49.592;8.662;2023-07-24T08:59:26;258.75;;;245.70;;
11039;SDS011;5573;49.592;8.662;2023-07-24T09:01:54;273.35;;;259.70;;
11039;SDS011;5573;49.592;8.662;2023-07-24T09:04:23;285.83;;;271.52;;
11039;SDS011;5573;49.592;8.662;2023-07-24T09:06:52;260.88;;;247.65;;
11039;SDS011;5573;49.592;8.662;2023-07-24T09:09:21;267.52;;;254.15;;
11039;SDS011;5573;49.592;8.662;2023-07-24T09:11:50;277.70;;;263.70;;
11039;SDS011;5573;49.592;8.662;2023-07-24T09:14:21;270.63;;;256.98;;
11039;SDS011;5573;49.592;8.662;2023-07-24T09:16:49;270.50;;;256.80;;
11039;SDS011;5573;49.592;8.662;2023-07-24T09:19:19;265.95;;;252.50;;
11039;SDS011;5573;49.592;8.662;2023-07-24T09:21:50;263.85;;;250.75;;
11039;SDS011;5573;49.592;8.662;2023-07-24T09:24:17;272.75;;;258.85;;
11039;SDS011;5573;49.592;8.662;2023-07-24T09:26:50;267.83;;;254.30;;
11039;SDS011;5573;49.592;8.662;2023-07-24T09:29:29;256.60;;;243.73;;
11039;SDS011;5573;49.592;8.662;2023-07-24T09:31:58;246.70;;;234.27;;
11039;SDS011;5573;49.592;8.662;2023-07-24T09:34:26;271.98;;;258.30;;
11039;SDS011;5573;49.592;8.662;2023-07-24T09:36:54;252.40;;;239.70;;
11039;SDS011;5573;49.592;8.662;2023-07-24T09:39:22;260.13;;;247.02;;
11039;SDS011;5573;49.592;8.662;2023-07-24T09:41:52;243.20;;;231.02;;
11039;SDS011;5573;49.592;8.662;2023-07-24T09:44:21;253.88;;;241.20;;
11039;SDS011;5573;49.592;8.662;2023-07-24T09:46:53;247.52;;;235.13;;
11039;SDS011;5573;49.592;8.662;2023-07-24T09:49:24;227.73;;;216.30;;
11039;SDS011;5573;49.592;8.662;2023-07-24T09:51:53;201.63;;;191.40;;
11039;SDS011;5573;49.592;8.662;2023-07-24T09:54:27;229.90;;;218.27;;
11039;SDS011;5573;49.592;8.662;2023-07-24T09:57:02;218.80;;;207.73;;
11039;SDS011;5573;49.592;8.662;2023-07-24T09:59:46;189.05;;;179.38;;
11039;SDS011;5573;49.592;8.662;2023-07-24T10:02:16;190.32;;;180.60;;
11039;SDS011;5573;49.592;8.662;2023-07-24T10:04:45;196.35;;;186.27;;
11039;SDS011;5573;49.592;8.662;2023-07-24T10:07:14;196.38;;;186.27;;
11039;SDS011;5573;49.592;8.662;2023-07-24T10:09:43;190.90;;;181.13;;
11039;SDS011;5573;49.592;8.662;2023-07-24T10:12:12;188.02;;;178.35;;
11039;SDS011;5573;49.592;8.662;2023-07-24T10:14:39;183.45;;;173.93;;
11039;SDS011;5573;49.592;8.662;2023-07-24T10:17:08;196.40;;;186.32;;
11039;SDS011;5573;49.592;8.662;2023-07-24T10:19:36;184.55;;;175.10;;
11039;SDS011;5573;49.592;8.662;2023-07-24T10:22:06;193.98;;;184.02;;
11039;SDS011;5573;49.592;8.662;2023-07-24T10:24:34;191.60;;;181.70;;
11039;SDS011;5573;49.592;8.662;2023-07-24T10:27:08;196.45;;;186.32;;
11039;SDS011;5573;49.592;8.662;2023-07-24T10:29:38;193.25;;;183.32;;
11039;SDS011;5573;49.592;8.662;2023-07-24T10:32:16;185.32;;;175.82;;
11039;SDS011;5573;49.592;8.662;2023-07-24T10:34:44;191.13;;;181.50;;
11039;SDS011;5573;49.592;8.662;2023-07-24T10:37:12;191.82;;;181.98;;
11039;SDS011;5573;49.592;8.662;2023-07-24T10:39:40;191.05;;;181.15;;
11039;SDS011;5573;49.592;8.662;2023-07-24T10:42:09;204.43;;;194.07;;
11039;SDS011;5573;49.592;8.662;2023-07-24T10:44:39;203.75;;;193.35;;
11039;SDS011;5573;49.592;8.662;2023-07-24T10:47:07;215.43;;;204.35;;
11039;SDS011;5573;49.592;8.662;2023-07-24T10:49:35;204.18;;;193.82;;
11039;SDS011;5573;49.592;8.662;2023-07-24T10:52:04;230.07;;;218.48;;
11039;SDS011;5573;49.592;8.662;2023-07-24T10:54:32;230.48;;;218.65;;
11039;SDS011;5573;49.592;8.662;2023-07-24T10:57:01;229.07;;;217.55;;
11039;SDS011;5573;49.592;8.662;2023-07-24T10:59:36;229.00;;;217.52;;
11039;SDS011;5573;49.592;8.662;2023-07-24T11:02:07;233.68;;;221.73;;
11039;SDS011;5573;49.592;8.662;2023-07-24T11:04:36;232.50;;;220.60;;
11039;SDS011;5573;49.592;8.662;2023-07-24T11:07:04;240.95;;;228.82;;
11039;SDS011;5573;49.592;8.662;2023-07-24T11:09:35;239.23;;;227.23;;
11039;SDS011;5573;49.592;8.662;2023-07-24T11:12:09;239.25;;;227.15;;
11039;SDS011;5573;49.592;8.662;2023-07-24T11:14:45;257.25;;;244.38;;
11039;SDS011;5573;49.592;8.662;2023-07-24T11:17:16;256.15;;;243.27;;
11039;SDS011;5573;49.592;8.662;2023-07-24T11:19:44;250.02;;;237.48;;
11039;SDS011;5573;49.592;8.662;2023-07-24T11:22:11;261.33;;;248.15;;
11039;SDS011;5573;49.592;8.662;2023-07-24T11:24:43;258.83;;;245.77;;
11039;SDS011;5573;49.592;8.662;2023-07-24T11:27:14;262.80;;;249.57;;
11039;SDS011;5573;49.592;8.662;2023-07-24T11:29:47;271.48;;;257.90;;
11039;SDS011;5573;49.592;8.662;2023-07-24T11:32:18;286.73;;;272.30;;
11039;SDS011;5573;49.592;8.662;2023-07-24T11:34:47;258.60;;;245.45;;
11039;SDS011;5573;49.592;8.662;2023-07-24T11:37:16;263.45;;;250.07;;
11039;SDS011;5573;49.592;8.662;2023-07-24T11:39:54;262.58;;;249.40;;
11039;SDS011;5573;49.592;8.662;2023-07-24T11:42:24;256.80;;;243.88;;
11039;SDS011;5573;49.592;8.662;2023-07-24T11:44:52;265.63;;;252.13;;
11039;SDS011;5573;49.592;8.662;2023-07-24T11:47:22;256.38;;;243.38;;
11039;SDS011;5573;49.592;8.662;2023-07-24T11:49:56;265.83;;;252.48;;
11039;SDS011;5573;49.592;8.662;2023-07-24T11:52:25;256.25;;;243.20;;
11039;SDS011;5573;49.592;8.662;2023-07-24T11:54:56;253.52;;;240.77;;
11039;SDS011;5573;49.592;8.662;2023-07-24T11:57:27;243.02;;;230.85;;
11039;SDS011;5573;49.592;8.662;2023-07-24T11:59:55;234.15;;;222.38;;
11039;SDS011;5573;49.592;8.662;2023-07-24T12:02:26;218.00;;;206.88;;
11039;SDS011;5573;49.592;8.662;2023-07-24T12:04:55;208.65;;;198.07;;
11039;SDS011;5573;49.592;8.662;2023-07-24T12:07:31;199.07;;;188.90;;
11039;SDS011;5573;49.592;8.662;2023-07-24T12:10:00;195.95;;;185.95;;
11039;SDS011;5573;49.592;8.662;2023-07-24T12:12:38;187.88;;;178.02;;
11039;SDS011;5573;49.592;8.662;2023-07-24T12:15:07;206.80;;;196.23;;
11039;SDS011;5573;49.592;8.662;2023-07-24T12:17:37;217.02;;;205.75;;
11039;SDS011;5573;49.592;8.662;2023-07-24T12:20:06;213.27;;;202.35;;
11039;SDS011;5573;49.592;8.662;2023-07-24T12:22:36;216.65;;;205.57;;
11039;SDS011;5573;49.592;8.662;2023-07-24T12:25:05;218.90;;;207.65;;
11039;SDS011;5573;49.592;8.662;2023-07-24T12:27:33;231.05;;;219.40;;
11039;SDS011;5573;49.592;8.662;2023-07-24T12:30:01;220.15;;;208.90;;
11039;SDS011;5573;49.592;8.662;2023-07-24T12:32:29;217.10;;;206.15;;
11039;SDS011;5573;49.592;8.662;2023-07-24T12:34:59;219.18;;;208.05;;
11039;SDS011;5573;49.592;8.662;2023-07-24T12:37:26;217.35;;;206.40;;
11039;SDS011;5573;49.592;8.662;2023-07-24T12:39:55;232.18;;;220.18;;
11039;SDS011;5573;49.592;8.662;2023-07-24T12:42:22;206.50;;;195.82;;
11039;SDS011;5573;49.592;8.662;2023-07-24T12:44:50;223.75;;;212.45;;
11039;SDS011;5573;49.592;8.662;2023-07-24T12:47:18;238.23;;;226.10;;
11039;SDS011;5573;49.592;8.662;2023-07-24T12:49:46;234.77;;;222.88;;
11039;SDS011;5573;49.592;8.662;2023-07-24T12:52:15;236.05;;;224.18;;
11039;SDS011;5573;49.592;8.662;2023-07-24T12:54:43;226.23;;;214.85;;
11039;SDS011;5573;49.592;8.662;2023-07-24T12:57:27;233.93;;;222.02;;
11039;SDS011;5573;49.592;8.662;2023-07-24T12:59:55;226.70;;;214.88;;
11039;SDS011;5573;49.592;8.662;2023-07-24T13:02:23;224.70;;;213.18;;
11039;SDS011;5573;49.592;8.662;2023-07-24T13:04:51;233.55;;;221.85;;
11039;SDS011;5573;49.592;8.662;2023-07-24T13:07:21;241.75;;;229.63;;
11039;SDS011;5573;49.592;8.662;2023-07-24T13:09:48;241.25;;;229.00;;
11039;SDS011;5573;49.592;8.662;2023-07-24T13:12:16;253.82;;;240.93;;
11039;SDS011;5573;49.592;8.662;2023-07-24T13:14:44;240.27;;;228.07;;
11039;SDS011;5573;49.592;8.662;2023-07-24T13:17:12;246.40;;;233.85;;
11039;SDS011;5573;49.592;8.662;2023-07-24T13:19:40;228.13;;;216.63;;
11039;SDS011;5573;49.592;8.662;2023-07-24T13:22:08;218.93;;;207.77;;
11039;SDS011;5573;49.592;8.662;2023-07-24T13:24:37;227.63;;;216.05;;
11039;SDS011;5573;49.592;8.662;2023-07-24T13:27:05;227.43;;;215.77;;
11039;SDS011;5573;49.592;8.662;2023-07-24T13:29:33;235.68;;;223.68;;
11039;SDS011;5573;49.592;8.662;2023-07-24T13:32:01;246.95;;;234.88;;
11039;SDS011;5573;49.592;8.662;2023-07-24T13:34:29;249.98;;;237.30;;
11039;SDS011;5573;49.592;8.662;2023-07-24T13:36:57;253.63;;;240.85;;
11039;SDS011;5573;49.592;8.662;2023-07-24T13:39:25;271.67;;;257.92;;
11039;SDS011;5573;49.592;8.662;2023-07-24T13:41:56;253.18;;;240.32;;
11039;SDS011;5573;49.592;8.662;2023-07-24T13:44:23;280.85;;;266.58;;
11039;SDS011;5573;49.592;8.662;2023-07-24T13:46:51;280.67;;;266.33;;
11039;SDS011;5573;49.592;8.662;2023-07-24T13:49:21;296.48;;;281.50;;
11039;SDS011;5573;49.592;8.662;2023-07-24T13:51:49;295.25;;;280.30;;
11039;SDS011;5573;49.592;8.662;2023-07-24T13:54:17;295.20;;;280.17;;
11039;SDS011;5573;49.592;8.662;2023-07-24T13:56:45;282.67;;;268.17;;
11039;SDS011;5573;49.592;8.662;2023-07-24T13:59:14;275.50;;;261.60;;
11039;SDS011;5573;49.592;8.662;2023-07-24T14:01:42;285.50;;;270.95;;
11039;SDS011;5573;49.592;8.662;2023-07-24T14:04:09;285.48;;;270.83;;
11039;SDS011;5573;49.592;8.662;2023-07-24T14:06:38;282.67;;;268.52;;
11039;SDS011;5573;49.592;8.662;2023-07-24T14:09:06;273.13;;;259.23;;
11039;SDS011;5573;49.592;8.662;2023-07-24T14:11:35;278.45;;;264.50;;
11039;SDS011;5573;49.592;8.662;2023-07-24T14:14:02;262.50;;;249.27;;
11039;SDS011;5573;49.592;8.662;2023-07-24T14:16:32;253.02;;;240.15;;
11039;SDS011;5573;49.592;8.662;2023-07-24T14:19:00;213.50;;;202.15;;